Time;durP1;ratioP1;P1;durP2;ratioP2;P2;SDS_P1;SDS_P2;PMS_P1;PMS_P2;Temp;Humidity;BMP_temperature;BMP_pressure;BME280_temperature;BME280_humidity;BME280_pressure;Samples;Min_cycle;Max_cycle;Signal;HPM_P1;HPM_P2
2023/03/28 00:00:58;;;;;;;;;;;22.90;83.70;;;;;;5054640;28;20371;-78
2023/03/28 00:03:26;;;;;;;;;;;22.90;83.70;;;;;;5054524;28;19909;-78
2023/03/28 00:05:55;;;;;;;;;;;22.90;83.60;;;;;;5054557;28;19916;-79
2023/03/28 00:08:22;;;;;;;;;;;22.90;83.50;;;;;;5054522;28;20000;-79
2023/03/28 00:10:49;;;;;;;;;;;22.90;83.20;;;;;;5036621;28;19909;-79
2023/03/28 00:13:18;;;;;;;;;;;23.00;83.20;;;;;;5054325;28;20270;-79
2023/03/28 00:15:45;;;;;;;;;;;22.90;83.00;;;;;;5054093;28;19917;-79
2023/03/28 00:18:12;;;;;;;;;;;22.90;83.00;;;;;;5036377;28;19909;-78
2023/03/28 00:20:41;;;;;;;;;;;23.00;82.90;;;;;;5054227;28;19909;-79
2023/03/28 00:23:08;;;;;;;;;;;23.00;82.90;;;;;;5036662;28;20333;-76
2023/03/28 00:25:38;;;;;;;;;;;23.00;82.70;;;;;;5054089;28;19909;-76
2023/03/28 00:28:05;;;;;;;;;;;23.10;82.70;;;;;;5054232;28;20370;-77
2023/03/28 00:30:32;;;;;;;;;;;23.10;82.50;;;;;;5054217;28;19912;-78
2023/03/28 00:32:59;;;;;;;;;;;23.20;82.50;;;;;;5052963;28;19921;-79
2023/03/28 00:35:26;;;;;;;;;;;23.30;82.50;;;;;;5053616;28;19920;-79
2023/03/28 00:37:56;;;;;;;;;;;23.30;82.70;;;;;;5053747;28;19992;-78
2023/03/28 00:40:26;;;;;;;;;;;23.30;82.70;;;;;;5053570;28;19931;-79
2023/03/28 00:42:53;;;;;;;;;;;23.30;82.40;;;;;;5053564;28;19909;-78
2023/03/28 00:45:23;;;;;;;;;;;23.30;82.20;;;;;;5036140;28;19915;-78
2023/03/28 00:48:00;;;;;;;;;;;23.30;81.90;;;;;;5053689;28;19952;-79
2023/03/28 00:50:27;;;;;;;;;;;23.30;81.90;;;;;;5053543;28;19988;-79
2023/03/28 00:53:07;;;;;;;;;;;23.40;82.00;;;;;;5053533;28;20278;-79
2023/03/28 00:55:37;;;;;;;;;;;23.40;82.00;;;;;;5053219;28;19917;-79
2023/03/28 00:58:06;;;;;;;;;;;23.40;81.90;;;;;;5053704;28;19908;-80
2023/03/28 01:00:33;;;;;;;;;;;23.40;81.80;;;;;;5053522;28;19960;-78
2023/03/28 01:03:00;;;;;;;;;;;23.40;81.90;;;;;;5053485;28;19913;-78
2023/03/28 01:05:27;;;;;;;;;;;23.40;81.90;;;;;;5053016;28;19915;-78
2023/03/28 01:07:58;;;;;;;;;;;23.50;81.60;;;;;;5035620;28;20282;-79
2023/03/28 01:10:25;;;;;;;;;;;23.50;81.20;;;;;;5035659;28;19974;-78
2023/03/28 01:12:52;;;;;;;;;;;23.50;81.00;;;;;;5053383;28;19908;-78
2023/03/28 01:15:19;;;;;;;;;;;23.50;80.70;;;;;;5035227;28;19917;-78
2023/03/28 01:17:46;;;;;;;;;;;23.50;80.50;;;;;;5053039;28;19916;-79
2023/03/28 01:20:13;;;;;;;;;;;23.50;80.60;;;;;;5052969;28;19909;-79
2023/03/28 01:22:46;;;;;;;;;;;23.50;80.60;;;;;;5053069;28;20286;-80
2023/03/28 01:25:19;;;;;;;;;;;23.50;80.20;;;;;;5035191;28;19932;-80
2023/03/28 01:27:54;;;;;;;;;;;23.50;80.10;;;;;;5052975;28;19952;-80
2023/03/28 01:30:38;;;;;;;;;;;23.40;79.70;;;;;;5034783;28;19909;-80
2023/03/28 01:33:05;;;;;;;;;;;23.40;79.30;;;;;;5052759;28;19921;-80
2023/03/28 01:35:35;;;;;;;;;;;23.40;79.10;;;;;;5052711;28;20302;-80
2023/03/28 01:38:20;;;;;;;;;;;23.40;78.70;;;;;;5052857;28;19909;-78
2023/03/28 01:40:47;;;;;;;;;;;23.40;78.50;;;;;;5052477;28;19909;-78
2023/03/28 01:43:28;;;;;;;;;;;23.40;78.30;;;;;;5052991;28;20367;-78
2023/03/28 01:46:01;;;;;;;;;;;23.40;78.30;;;;;;5034799;28;19971;-77
2023/03/28 01:48:37;;;;;;;;;;;23.40;78.30;;;;;;5052483;28;20264;-77
2023/03/28 01:51:07;;;;;;;;;;;23.40;78.30;;;;;;5052714;28;19920;-78
2023/03/28 01:54:01;;;;;;;;;;;23.30;78.50;;;;;;5034576;28;20364;-79
2023/03/28 01:56:40;;;;;;;;;;;23.40;78.60;;;;;;5048253;28;19921;-77
2023/03/28 01:59:13;;;;;;;;;;;23.40;78.70;;;;;;5052596;28;20342;-77
2023/03/28 02:01:59;;;;;;;;;;;23.50;79.00;;;;;;5052118;28;20114;-77
2023/03/28 02:04:28;;;;;;;;;;;23.50;78.90;;;;;;5052135;28;19909;-77
2023/03/28 02:06:54;;;;;;;;;;;23.50;79.20;;;;;;5035074;28;20258;-77
2023/03/28 02:09:22;;;;;;;;;;;23.60;79.40;;;;;;5052598;28;19915;-77
2023/03/28 02:11:49;;;;;;;;;;;23.60;79.60;;;;;;5034677;28;19909;-76
2023/03/28 02:14:16;;;;;;;;;;;23.60;79.70;;;;;;5034384;28;19909;-77
2023/03/28 02:16:43;;;;;;;;;;;23.60;79.90;;;;;;5034984;28;19919;-80
2023/03/28 02:19:10;;;;;;;;;;;23.60;79.90;;;;;;5051126;28;19908;-82
2023/03/28 02:21:55;;;;;;;;;;;23.60;80.10;;;;;;5034671;28;20004;-80
2023/03/28 02:24:22;;;;;;;;;;;23.60;79.90;;;;;;5052346;28;19908;-80
2023/03/28 02:26:49;;;;;;;;;;;23.60;79.80;;;;;;5052181;28;20281;-80
2023/03/28 02:29:16;;;;;;;;;;;23.60;80.10;;;;;;5034569;28;19909;-79
2023/03/28 02:31:42;;;;;;;;;;;23.60;80.70;;;;;;5052089;28;20366;-78
2023/03/28 02:34:09;;;;;;;;;;;23.50;80.80;;;;;;5034140;28;19921;-79
2023/03/28 02:36:54;;;;;;;;;;;23.50;81.00;;;;;;5033680;28;19963;-81
2023/03/28 02:39:25;;;;;;;;;;;23.50;81.10;;;;;;5052196;28;19908;-74
2023/03/28 02:42:03;;;;;;;;;;;23.50;80.70;;;;;;5034669;28;20326;-77
2023/03/28 02:44:48;;;;;;;;;;;23.50;80.80;;;;;;5052295;28;19915;-77
2023/03/28 02:47:26;;;;;;;;;;;23.50;80.80;;;;;;5052212;28;19913;-74
2023/03/28 02:49:56;;;;;;;;;;;23.50;81.00;;;;;;5034222;28;19939;-77
2023/03/28 02:52:33;;;;;;;;;;;23.50;81.20;;;;;;5034625;28;19913;-77
2023/03/28 02:55:02;;;;;;;;;;;23.50;81.40;;;;;;5051792;28;19943;-74
2023/03/28 02:57:32;;;;;;;;;;;23.50;81.40;;;;;;5054644;28;20350;-75
2023/03/28 03:00:11;;;;;;;;;;;23.50;81.40;;;;;;5038104;28;20251;-74
2023/03/28 03:02:49;;;;;;;;;;;23.50;81.30;;;;;;5038088;28;19919;-77
2023/03/28 03:05:16;;;;;;;;;;;23.50;80.90;;;;;;5038341;28;19952;-76
2023/03/28 03:07:43;;;;;;;;;;;23.50;80.90;;;;;;5036931;28;19912;-76
2023/03/28 03:10:10;;;;;;;;;;;23.60;80.80;;;;;;5054115;28;19971;-77
2023/03/28 03:12:37;;;;;;;;;;;23.50;80.70;;;;;;5037584;28;19913;-78
2023/03/28 03:15:04;;;;;;;;;;;23.50;80.70;;;;;;5055640;28;20321;-77
2023/03/28 03:17:31;;;;;;;;;;;23.50;80.60;;;;;;5046401;28;19940;-77
2023/03/28 03:19:58;;;;;;;;;;;23.50;80.40;;;;;;5045978;28;19912;-79
2023/03/28 03:22:24;;;;;;;;;;;23.40;80.40;;;;;;5055665;28;19908;-77
2023/03/28 03:24:51;;;;;;;;;;;23.40;80.40;;;;;;5055241;28;19923;-77
2023/03/28 03:27:18;;;;;;;;;;;23.40;80.50;;;;;;5037434;28;20382;-79
2023/03/28 03:29:45;;;;;;;;;;;23.40;80.60;;;;;;5055320;28;19908;-78
2023/03/28 03:32:12;;;;;;;;;;;23.40;80.80;;;;;;5054670;28;19947;-76
2023/03/28 03:34:40;;;;;;;;;;;23.30;80.80;;;;;;5055055;28;20283;-77
2023/03/28 03:37:08;;;;;;;;;;;23.30;81.10;;;;;;5055044;28;20042;-78
2023/03/28 03:39:38;;;;;;;;;;;23.30;81.30;;;;;;5055040;28;20362;-78
2023/03/28 03:42:04;;;;;;;;;;;23.30;82.20;;;;;;5055344;28;19913;-81
2023/03/28 03:44:31;;;;;;;;;;;23.30;82.70;;;;;;5054497;28;19920;-79
2023/03/28 03:46:58;;;;;;;;;;;23.20;84.00;;;;;;5054872;28;19913;-79
2023/03/28 03:49:24;;;;;;;;;;;23.20;84.70;;;;;;5055044;28;19952;-79
2023/03/28 03:51:51;;;;;;;;;;;23.10;85.90;;;;;;5054811;28;19916;-79
2023/03/28 03:54:18;;;;;;;;;;;23.00;86.90;;;;;;5054731;28;19916;-79
2023/03/28 03:56:45;;;;;;;;;;;22.90;87.30;;;;;;5054704;28;19990;-79
2023/03/28 03:59:12;;;;;;;;;;;22.80;87.70;;;;;;5036921;28;19909;-79
2023/03/28 04:01:38;;;;;;;;;;;22.80;87.70;;;;;;5054756;28;19909;-79
2023/03/28 04:04:08;;;;;;;;;;;22.80;87.80;;;;;;5054457;28;19909;-79
2023/03/28 04:06:35;;;;;;;;;;;22.80;88.10;;;;;;5054106;28;19909;-77
2023/03/28 04:09:01;;;;;;;;;;;22.80;88.50;;;;;;5037040;28;19919;-77
2023/03/28 04:11:28;;;;;;;;;;;22.80;88.60;;;;;;5054446;28;19913;-78
2023/03/28 04:13:55;;;;;;;;;;;22.80;88.90;;;;;;5054485;28;20374;-78
2023/03/28 04:16:22;;;;;;;;;;;22.70;88.60;;;;;;5054208;28;19917;-78
2023/03/28 04:18:52;;;;;;;;;;;22.70;88.50;;;;;;5054593;28;19916;-78
2023/03/28 04:21:28;;;;;;;;;;;22.70;89.00;;;;;;5054460;28;19916;-76
2023/03/28 04:23:55;;;;;;;;;;;22.60;89.30;;;;;;5036903;28;19955;-75
2023/03/28 04:26:28;;;;;;;;;;;22.60;89.70;;;;;;5036079;28;19970;-75
2023/03/28 04:28:55;;;;;;;;;;;22.50;90.30;;;;;;5037391;28;20259;-78
2023/03/28 04:31:22;;;;;;;;;;;22.40;90.70;;;;;;5053896;28;19909;-78
2023/03/28 04:33:48;;;;;;;;;;;22.30;90.50;;;;;;5036227;28;19925;-78
2023/03/28 04:36:15;;;;;;;;;;;22.20;90.80;;;;;;5054244;28;19925;-78
2023/03/28 04:38:44;;;;;;;;;;;22.10;91.00;;;;;;5053989;28;19920;-79
2023/03/28 04:41:12;;;;;;;;;;;22.00;91.70;;;;;;5036647;28;19998;-79
2023/03/28 04:43:39;;;;;;;;;;;21.90;92.10;;;;;;5036357;28;19909;-80
2023/03/28 04:46:06;;;;;;;;;;;21.80;92.50;;;;;;5053756;28;20247;-79
2023/03/28 04:48:32;;;;;;;;;;;21.70;92.70;;;;;;5054016;28;19909;-81
2023/03/28 04:50:59;;;;;;;;;;;21.70;93.40;;;;;;5054003;28;20382;-81
2023/03/28 04:53:26;;;;;;;;;;;21.70;93.80;;;;;;5053709;28;19992;-81
2023/03/28 04:55:53;;;;;;;;;;;21.60;93.70;;;;;;5053306;28;20008;-84
2023/03/28 04:58:20;;;;;;;;;;;21.50;94.00;;;;;;5053521;28;19909;-79
2023/03/28 05:00:50;;;;;;;;;;;21.60;94.10;;;;;;5053464;28;19951;-76
2023/03/28 05:03:17;;;;;;;;;;;21.50;93.80;;;;;;5036246;28;20371;-77
2023/03/28 05:05:45;;;;;;;;;;;21.30;93.60;;;;;;5035211;28;19913;-77
2023/03/28 05:08:15;;;;;;;;;;;21.10;93.50;;;;;;5035751;28;19947;-78
2023/03/28 05:10:42;;;;;;;;;;;20.90;93.70;;;;;;5036184;28;19916;-77
2023/03/28 05:13:08;;;;;;;;;;;20.90;94.10;;;;;;5035334;28;19916;-77
2023/03/28 05:15:35;;;;;;;;;;;20.80;94.20;;;;;;5035345;28;19999;-77
2023/03/28 05:18:02;;;;;;;;;;;20.80;94.40;;;;;;5053502;28;19955;-77
2023/03/28 05:20:28;;;;;;;;;;;20.80;94.60;;;;;;5052522;28;19952;-76
2023/03/28 05:22:56;;;;;;;;;;;20.80;94.70;;;;;;5053483;28;20003;-77
2023/03/28 05:25:22;;;;;;;;;;;20.80;95.00;;;;;;5053028;28;19909;-78
2023/03/28 05:27:50;;;;;;;;;;;20.80;95.00;;;;;;5053197;28;19909;-80
2023/03/28 05:30:16;;;;;;;;;;;20.80;95.20;;;;;;5053392;28;19971;-77
2023/03/28 05:32:43;;;;;;;;;;;20.80;95.60;;;;;;5035080;28;20362;-76
2023/03/28 05:35:10;;;;;;;;;;;20.80;95.60;;;;;;5052522;28;19917;-77
2023/03/28 05:37:37;;;;;;;;;;;20.90;95.60;;;;;;5052506;28;20282;-75
2023/03/28 05:40:08;;;;;;;;;;;20.80;95.50;;;;;;5052873;28;19916;-75
2023/03/28 05:42:35;;;;;;;;;;;20.90;95.70;;;;;;5052436;28;19913;-76
2023/03/28 05:45:02;;;;;;;;;;;21.00;95.80;;;;;;5034967;28;20002;-76
2023/03/28 05:47:29;;;;;;;;;;;21.00;95.80;;;;;;5052851;28;19948;-75
2023/03/28 05:49:56;;;;;;;;;;;21.00;95.80;;;;;;5052494;28;19912;-76
2023/03/28 05:52:22;;;;;;;;;;;20.90;95.60;;;;;;5034841;28;19935;-76
2023/03/28 05:54:49;;;;;;;;;;;20.90;95.70;;;;;;5052455;28;19917;-75
2023/03/28 05:57:16;;;;;;;;;;;20.90;95.60;;;;;;5052463;28;19917;-76
2023/03/28 05:59:43;;;;;;;;;;;20.80;95.60;;;;;;5052424;28;19987;-77
2023/03/28 06:02:13;;;;;;;;;;;20.90;95.90;;;;;;5052468;28;19995;-75
2023/03/28 06:04:40;;;;;;;;;;;20.90;95.90;;;;;;5034731;28;20282;-75
2023/03/28 06:07:07;;;;;;;;;;;20.90;95.70;;;;;;5052076;28;19909;-76
2023/03/28 06:09:34;;;;;;;;;;;20.90;95.70;;;;;;5052240;28;20366;-76
2023/03/28 06:12:01;;;;;;;;;;;21.00;95.80;;;;;;5052535;28;19908;-76
2023/03/28 06:14:28;;;;;;;;;;;21.00;95.90;;;;;;5052639;28;19908;-76
2023/03/28 06:16:55;;;;;;;;;;;21.00;96.00;;;;;;5034780;28;19913;-76
2023/03/28 06:19:22;;;;;;;;;;;21.00;95.90;;;;;;5052318;28;19915;-76
2023/03/28 06:21:49;;;;;;;;;;;21.10;96.00;;;;;;5052485;28;19956;-76
2023/03/28 06:24:15;;;;;;;;;;;21.10;96.10;;;;;;5034826;28;20488;-77
2023/03/28 06:26:42;;;;;;;;;;;21.00;96.00;;;;;;5052639;28;19909;-76
2023/03/28 06:29:10;;;;;;;;;;;21.10;96.00;;;;;;5052198;28;19913;-76
2023/03/28 06:31:37;;;;;;;;;;;21.10;96.10;;;;;;5035795;28;19909;-76
2023/03/28 06:34:04;;;;;;;;;;;21.10;96.00;;;;;;5056143;28;19921;-76
2023/03/28 06:36:31;;;;;;;;;;;21.10;95.80;;;;;;5056109;28;19970;-77
2023/03/28 06:38:57;;;;;;;;;;;21.00;95.60;;;;;;5056076;28;19916;-77
2023/03/28 06:41:24;;;;;;;;;;;21.00;95.50;;;;;;5056101;28;19915;-77
2023/03/28 06:43:51;;;;;;;;;;;21.00;95.20;;;;;;5056235;28;19909;-79
2023/03/28 06:46:19;;;;;;;;;;;20.90;95.00;;;;;;5056248;28;19960;-77
2023/03/28 06:48:46;;;;;;;;;;;20.90;95.20;;;;;;5038158;28;20267;-77
2023/03/28 06:51:12;;;;;;;;;;;20.90;95.00;;;;;;5056014;28;19963;-77
2023/03/28 06:53:39;;;;;;;;;;;20.90;95.00;;;;;;5056208;28;19913;-77
2023/03/28 06:56:06;;;;;;;;;;;20.90;95.10;;;;;;5037507;28;20322;-77
2023/03/28 06:58:33;;;;;;;;;;;20.90;95.10;;;;;;5038096;28;19931;-77
2023/03/28 07:01:00;;;;;;;;;;;20.90;95.20;;;;;;5056228;28;20000;-77
2023/03/28 07:03:28;;;;;;;;;;;20.90;95.10;;;;;;5059249;28;19908;-78
2023/03/28 07:05:55;;;;;;;;;;;20.90;95.20;;;;;;5058858;28;19992;-78
2023/03/28 07:08:22;;;;;;;;;;;20.90;95.10;;;;;;5037863;28;19912;-78
2023/03/28 07:10:49;;;;;;;;;;;20.90;95.00;;;;;;5037803;28;19963;-78
2023/03/28 07:13:15;;;;;;;;;;;20.90;95.00;;;;;;5055380;28;19916;-78
2023/03/28 07:15:42;;;;;;;;;;;20.90;95.00;;;;;;5055393;28;19999;-77
2023/03/28 07:18:11;;;;;;;;;;;20.80;94.90;;;;;;5055421;28;20004;-77
2023/03/28 07:20:41;;;;;;;;;;;20.80;94.70;;;;;;5035741;28;19913;-77
2023/03/28 07:23:08;;;;;;;;;;;20.80;94.80;;;;;;5018057;28;20360;-78
2023/03/28 07:25:34;;;;;;;;;;;20.80;94.70;;;;;;5035572;28;19955;-77
2023/03/28 07:28:01;;;;;;;;;;;20.80;94.80;;;;;;5017645;28;20271;-78
2023/03/28 07:30:28;;;;;;;;;;;20.80;94.70;;;;;;5035458;28;19992;-77
2023/03/28 07:32:55;;;;;;;;;;;20.80;94.70;;;;;;5017519;28;19921;-77
2023/03/28 07:35:21;;;;;;;;;;;20.80;94.70;;;;;;5017389;28;19964;-76
2023/03/28 07:37:48;;;;;;;;;;;20.80;94.60;;;;;;5035275;28;20413;-78
2023/03/28 07:40:15;;;;;;;;;;;20.80;94.70;;;;;;5035346;28;20008;-77
2023/03/28 07:42:42;;;;;;;;;;;20.80;94.60;;;;;;5038906;28;20294;-80
2023/03/28 07:45:09;;;;;;;;;;;20.80;94.60;;;;;;5055087;28;19955;-78
2023/03/28 07:47:35;;;;;;;;;;;20.80;94.60;;;;;;5055133;28;19935;-76
2023/03/28 07:50:03;;;;;;;;;;;20.70;94.50;;;;;;5055072;28;19913;-77
2023/03/28 07:52:30;;;;;;;;;;;20.70;94.30;;;;;;5055131;28;19955;-77
2023/03/28 07:54:56;;;;;;;;;;;20.70;94.30;;;;;;5054747;28;19912;-77
2023/03/28 07:57:23;;;;;;;;;;;20.70;94.30;;;;;;5055278;28;19934;-77
2023/03/28 07:59:50;;;;;;;;;;;20.70;94.30;;;;;;5055769;28;19908;-78
2023/03/28 08:02:16;;;;;;;;;;;20.70;94.40;;;;;;5054625;28;19916;-78
2023/03/28 08:04:43;;;;;;;;;;;20.70;94.20;;;;;;5054877;28;20359;-78
2023/03/28 08:07:11;;;;;;;;;;;20.70;94.00;;;;;;5054301;28;19909;-78
2023/03/28 08:09:38;;;;;;;;;;;20.70;94.20;;;;;;5054747;28;19913;-78
2023/03/28 08:12:05;;;;;;;;;;;20.70;94.00;;;;;;5054792;28;19932;-77
2023/03/28 08:14:31;;;;;;;;;;;20.70;94.10;;;;;;5054307;28;19909;-78
2023/03/28 08:16:58;;;;;;;;;;;20.70;94.10;;;;;;5054763;28;20425;-78
2023/03/28 08:19:25;;;;;;;;;;;20.70;93.90;;;;;;5054413;28;19920;-78
2023/03/28 08:21:51;;;;;;;;;;;20.70;93.90;;;;;;5054189;28;20282;-77
2023/03/28 08:24:18;;;;;;;;;;;20.70;93.90;;;;;;5054419;28;19909;-78
2023/03/28 08:26:45;;;;;;;;;;;20.60;93.90;;;;;;5054157;28;19909;-78
2023/03/28 08:29:12;;;;;;;;;;;20.60;93.70;;;;;;5054261;28;20359;-77
2023/03/28 08:31:39;;;;;;;;;;;20.70;93.80;;;;;;5053985;28;19970;-77
2023/03/28 08:34:05;;;;;;;;;;;20.60;93.70;;;;;;5054233;28;19932;-78
2023/03/28 08:36:32;;;;;;;;;;;20.60;93.90;;;;;;5053913;28;19956;-76
2023/03/28 08:39:04;;;;;;;;;;;20.60;93.60;;;;;;5054155;28;19991;-77
2023/03/28 08:41:39;;;;;;;;;;;20.70;93.80;;;;;;5053996;28;19955;-77
2023/03/28 08:44:06;;;;;;;;;;;20.60;93.70;;;;;;5048904;22;19924;-68
2023/03/28 08:46:33;;;;;;;;;;;20.60;93.60;;;;;;5054119;28;19909;-67
2023/03/28 08:49:00;;;;;;;;;;;20.70;93.80;;;;;;5053896;28;19944;-68
2023/03/28 08:51:34;;;;;;;;;;;20.60;93.60;;;;;;5036325;28;19967;-67
2023/03/28 08:54:17;;;;;;;;;;;20.70;93.60;;;;;;5035466;28;20353;-67
2023/03/28 08:56:45;;;;;;;;;;;20.60;93.40;;;;;;5016166;28;19917;-67
2023/03/28 08:59:15;;;;;;;;;;;20.60;93.60;;;;;;5016038;28;19917;-67
2023/03/28 09:01:42;;;;;;;;;;;20.60;93.80;;;;;;5016276;28;19909;-67
2023/03/28 09:04:25;;;;;;;;;;;20.60;93.60;;;;;;5033916;28;20275;-67
2023/03/28 09:06:53;;;;;;;;;;;20.60;93.70;;;;;;5033500;28;19909;-67
2023/03/28 09:09:26;;;;;;;;;;;20.60;93.90;;;;;;5033536;28;19909;-67
2023/03/28 09:12:02;;;;;;;;;;;20.60;94.00;;;;;;5033215;28;20264;-68
2023/03/28 09:14:35;;;;;;;;;;;20.60;94.10;;;;;;5015866;28;19909;-67
2023/03/28 09:17:09;;;;;;;;;;;20.60;94.00;;;;;;5046532;28;19924;-67
2023/03/28 09:19:38;;;;;;;;;;;20.60;94.00;;;;;;5033653;28;19925;-67
2023/03/28 09:22:16;;;;;;;;;;;20.50;94.10;;;;;;5052028;28;19920;-67
2023/03/28 09:24:47;;;;;;;;;;;20.50;94.10;;;;;;5034549;28;19912;-65
2023/03/28 09:27:32;;;;;;;;;;;20.60;94.10;;;;;;5052485;28;20007;-69
2023/03/28 09:30:16;;;;;;;;;;;20.50;93.90;;;;;;5035440;28;20372;-67
2023/03/28 09:32:43;;;;;;;;;;;20.50;93.90;;;;;;5051898;28;19974;-67
2023/03/28 09:35:16;;;;;;;;;;;20.50;94.10;;;;;;5052124;28;19923;-67
2023/03/28 09:37:49;;;;;;;;;;;20.60;94.30;;;;;;5052662;28;19917;-67
2023/03/28 09:40:17;;;;;;;;;;;20.50;94.00;;;;;;5051998;28;20016;-68
2023/03/28 09:42:44;;;;;;;;;;;20.50;94.30;;;;;;5031893;28;20011;-67
2023/03/28 09:45:20;;;;;;;;;;;20.50;94.20;;;;;;5042024;28;19923;-67
2023/03/28 09:47:47;;;;;;;;;;;20.50;94.10;;;;;;5030849;28;19913;-67
2023/03/28 09:50:14;;;;;;;;;;;20.50;94.00;;;;;;5022912;28;19913;-67
2023/03/28 09:52:41;;;;;;;;;;;20.50;94.00;;;;;;5051698;28;19917;-66
2023/03/28 09:55:18;;;;;;;;;;;20.60;94.30;;;;;;5051255;28;19920;-66
2023/03/28 09:58:01;;;;;;;;;;;20.50;94.20;;;;;;5034583;28;20329;-66
2023/03/28 10:00:28;;;;;;;;;;;20.60;94.20;;;;;;5049035;28;19920;-66
2023/03/28 10:02:55;;;;;;;;;;;20.50;94.20;;;;;;5051894;28;19920;-66
2023/03/28 10:05:42;;;;;;;;;;;20.50;94.50;;;;;;5033990;28;19975;-66
2023/03/28 10:08:21;;;;;;;;;;;20.50;94.30;;;;;;5051945;28;20279;-67
2023/03/28 10:10:55;;;;;;;;;;;20.40;94.20;;;;;;5044202;28;19913;-66
2023/03/28 10:13:22;;;;;;;;;;;20.40;94.50;;;;;;5048066;28;19939;-67
2023/03/28 10:15:49;;;;;;;;;;;20.40;94.70;;;;;;5051509;28;19916;-66
2023/03/28 10:18:16;;;;;;;;;;;20.50;94.60;;;;;;5043474;28;20326;-67
2023/03/28 10:20:44;;;;;;;;;;;20.50;94.80;;;;;;5052225;28;20326;-66
2023/03/28 10:23:11;;;;;;;;;;;20.50;94.80;;;;;;5048285;28;19917;-67
2023/03/28 10:25:42;;;;;;;;;;;20.40;95.00;;;;;;5040399;28;19939;-67
2023/03/28 10:28:12;;;;;;;;;;;20.40;95.10;;;;;;5033738;28;19917;-66
2023/03/28 10:30:39;;;;;;;;;;;20.50;95.10;;;;;;5036036;28;19919;-67
2023/03/28 10:33:25;;;;;;;;;;;20.40;95.10;;;;;;5057637;28;19967;-67
2023/03/28 10:36:02;;;;;;;;;;;20.40;95.20;;;;;;5015178;28;19921;-66
2023/03/28 10:38:37;;;;;;;;;;;20.40;95.00;;;;;;5052276;28;19919;-65
2023/03/28 13:00:05;;;;;;;;;;;20.30;92.80;;;;;;5045153;28;20385;-66
2023/03/28 13:02:55;;;;;;;;;;;20.30;92.90;;;;;;5071835;28;19931;-66
2023/03/28 13:05:23;;;;;;;;;;;20.30;93.30;;;;;;5044354;28;19944;-66
2023/03/28 13:08:01;;;;;;;;;;;20.20;93.70;;;;;;5073672;28;19913;-66
2023/03/28 13:10:46;;;;;;;;;;;20.20;93.60;;;;;;5058196;28;19919;-65
2023/03/28 13:13:13;;;;;;;;;;;20.10;93.90;;;;;;5053530;28;20003;-66
2023/03/28 13:15:55;;;;;;;;;;;20.20;94.00;;;;;;5057623;28;20289;-65
2023/03/28 13:18:25;;;;;;;;;;;20.10;94.20;;;;;;5073698;28;19987;-65
2023/03/28 13:20:52;;;;;;;;;;;20.10;94.30;;;;;;5073242;28;19985;-65
2023/03/28 13:23:23;;;;;;;;;;;20.20;94.30;;;;;;5055043;28;19958;-67
2023/03/28 13:25:53;;;;;;;;;;;20.10;94.30;;;;;;5055350;28;19912;-65
2023/03/28 13:28:26;;;;;;;;;;;20.10;94.40;;;;;;5071978;28;20319;-64
2023/03/28 13:31:13;;;;;;;;;;;20.10;94.40;;;;;;5053903;28;20384;-65
2023/03/28 13:33:46;;;;;;;;;;;20.20;94.40;;;;;;5059080;28;19954;-65
2023/03/28 13:36:17;;;;;;;;;;;20.20;94.40;;;;;;5055268;28;19916;-65
2023/03/28 13:38:45;;;;;;;;;;;20.10;94.40;;;;;;5072992;28;19909;-66
2023/03/28 13:41:28;;;;;;;;;;;20.10;94.30;;;;;;5072130;28;19963;-65
2023/03/28 13:43:55;;;;;;;;;;;20.20;94.30;;;;;;5072931;28;20432;-65
2023/03/28 13:46:30;;;;;;;;;;;20.20;94.50;;;;;;5073159;28;19916;-66
2023/03/28 13:49:15;;;;;;;;;;;20.20;94.50;;;;;;5056120;28;19919;-66
2023/03/28 13:51:45;;;;;;;;;;;20.20;94.70;;;;;;5070555;28;20330;-67
2023/03/28 13:54:11;;;;;;;;;;;20.20;94.80;;;;;;5072247;28;19919;-68
2023/03/28 13:56:43;;;;;;;;;;;20.20;94.90;;;;;;5058014;28;19920;-66
2023/03/28 13:59:12;;;;;;;;;;;20.20;94.80;;;;;;5052528;28;19944;-67
2023/03/28 16:35:07;;;;;;;;;;;20.40;92.90;;;;;;5047406;28;20333;-66
2023/03/28 16:37:33;;;;;;;;;;;20.40;92.80;;;;;;5032593;28;19924;-65
2023/03/28 16:40:00;;;;;;;;;;;20.40;92.70;;;;;;5034045;28;19913;-65
2023/03/28 16:42:29;;;;;;;;;;;20.40;92.50;;;;;;5032950;28;20290;-65
2023/03/28 16:44:57;;;;;;;;;;;20.40;92.30;;;;;;5033566;28;20031;-65
2023/03/28 16:47:24;;;;;;;;;;;20.40;92.20;;;;;;5033421;28;19948;-66
2023/03/28 16:49:51;;;;;;;;;;;20.40;92.10;;;;;;5033211;28;19913;-66
2023/03/28 16:52:18;;;;;;;;;;;20.40;92.10;;;;;;5033780;28;20319;-65
2023/03/28 16:54:47;;;;;;;;;;;20.40;92.10;;;;;;5033950;28;20008;-66
2023/03/28 16:57:14;;;;;;;;;;;20.40;92.20;;;;;;5033377;28;19925;-66
2023/03/28 16:59:41;;;;;;;;;;;20.40;92.00;;;;;;5033881;28;19909;-65
2023/03/28 17:02:08;;;;;;;;;;;20.40;91.90;;;;;;5032140;28;19913;-65
2023/03/28 17:04:35;;;;;;;;;;;20.50;92.10;;;;;;5031673;28;19932;-64
2023/03/28 17:07:02;;;;;;;;;;;20.50;92.00;;;;;;5033149;28;19917;-65
2023/03/28 17:09:28;;;;;;;;;;;20.50;91.70;;;;;;5028096;28;19913;-65
2023/03/28 17:11:55;;;;;;;;;;;20.40;91.80;;;;;;5032646;28;19921;-66
2023/03/28 17:14:22;;;;;;;;;;;20.40;91.50;;;;;;5022284;28;19909;-67
2023/03/28 17:16:49;;;;;;;;;;;20.50;91.50;;;;;;5030556;28;20497;-68
2023/03/28 17:19:18;;;;;;;;;;;20.50;91.80;;;;;;5017178;28;19909;-68
2023/03/28 17:21:44;;;;;;;;;;;20.50;91.70;;;;;;5033522;28;19909;-67
2023/03/28 17:24:13;;;;;;;;;;;20.60;91.60;;;;;;5033757;28;20002;-68
2023/03/28 17:26:40;;;;;;;;;;;20.60;91.40;;;;;;5033670;28;20425;-68
2023/03/28 17:29:08;;;;;;;;;;;20.60;91.40;;;;;;5033946;28;20371;-67
2023/03/28 17:31:35;;;;;;;;;;;20.60;91.50;;;;;;5033411;28;19940;-67
2023/03/28 17:34:03;;;;;;;;;;;20.50;91.50;;;;;;5033364;28;19920;-67
2023/03/28 18:01:54;;;;;;;;;;;20.70;90.30;;;;;;5037759;28;19931;-66
2023/03/28 18:04:21;;;;;;;;;;;20.70;90.10;;;;;;5070154;28;20006;-66
2023/03/28 18:06:48;;;;;;;;;;;20.70;90.10;;;;;;5051669;28;19987;-66
2023/03/28 18:09:15;;;;;;;;;;;20.70;90.10;;;;;;5052527;28;19908;-67
2023/03/28 18:11:42;;;;;;;;;;;20.70;90.00;;;;;;5052499;28;20008;-67
2023/03/28 18:14:10;;;;;;;;;;;20.70;89.90;;;;;;5046413;28;20374;-67
2023/03/28 18:16:37;;;;;;;;;;;20.70;89.70;;;;;;5027749;28;20330;-68
2023/03/28 18:19:05;;;;;;;;;;;20.70;89.90;;;;;;5036621;28;19924;-68
2023/03/28 18:21:32;;;;;;;;;;;20.70;89.70;;;;;;5029120;28;19921;-67
2023/03/28 18:23:59;;;;;;;;;;;20.70;89.40;;;;;;5045674;28;20393;-67
2023/03/28 18:26:27;;;;;;;;;;;20.70;89.50;;;;;;5038445;28;20010;-68
2023/03/28 18:28:54;;;;;;;;;;;20.80;89.80;;;;;;5048814;28;19913;-67
2023/03/28 18:31:25;;;;;;;;;;;20.70;89.80;;;;;;5053411;28;19920;-67
2023/03/28 18:33:53;;;;;;;;;;;20.70;89.60;;;;;;5036975;28;19924;-67
2023/03/28 18:36:19;;;;;;;;;;;20.80;89.40;;;;;;5043853;28;19992;-67
2023/03/28 18:38:46;;;;;;;;;;;20.70;89.40;;;;;;5048129;28;19913;-67
2023/03/28 18:41:13;;;;;;;;;;;20.80;89.20;;;;;;5047837;28;20262;-67
2023/03/28 18:43:40;;;;;;;;;;;20.80;89.10;;;;;;5042091;28;20004;-67
2023/03/28 18:46:07;;;;;;;;;;;20.80;89.10;;;;;;5044456;28;19912;-68
2023/03/28 18:48:34;;;;;;;;;;;20.80;89.10;;;;;;5054435;28;19919;-68
2023/03/28 18:51:10;;;;;;;;;;;20.80;88.90;;;;;;5048287;28;19919;-68
2023/03/28 18:53:37;;;;;;;;;;;20.80;89.00;;;;;;5037376;28;19913;-68
2023/03/28 18:56:04;;;;;;;;;;;20.80;88.60;;;;;;5064205;28;19921;-68
2023/03/28 18:58:32;;;;;;;;;;;20.80;88.70;;;;;;5045543;28;19917;-68
2023/03/28 19:38:44;;;;;;;;;;;20.60;90.50;;;;;;5064950;28;19931;-67
2023/03/28 19:41:18;;;;;;;;;;;20.60;90.60;;;;;;5075161;28;19940;-67
2023/03/28 19:43:46;;;;;;;;;;;20.60;90.80;;;;;;5079352;28;20240;-68
2023/03/28 19:46:20;;;;;;;;;;;20.50;90.90;;;;;;5076555;28;19946;-67
2023/03/28 19:48:48;;;;;;;;;;;20.60;90.90;;;;;;5088114;22;19977;-84
2023/03/28 19:51:15;;;;;;;;;;;20.60;91.10;;;;;;5074940;28;19982;-83
2023/03/28 19:53:42;;;;;;;;;;;20.50;90.90;;;;;;5040335;28;19915;-84
2023/03/28 19:56:10;;;;;;;;;;;20.60;91.30;;;;;;5026065;28;19952;-83
2023/03/28 19:58:37;;;;;;;;;;;20.60;91.20;;;;;;5054504;28;19916;-83
2023/03/28 20:01:04;;;;;;;;;;;20.60;91.30;;;;;;5053185;28;19966;-83
2023/03/28 20:03:31;;;;;;;;;;;20.70;91.10;;;;;;5054959;28;19916;-83
2023/03/28 20:06:01;;;;;;;;;;;20.70;91.00;;;;;;5057103;28;20361;-83
2023/03/28 20:08:27;;;;;;;;;;;20.70;91.00;;;;;;5037713;28;19909;-83
2023/03/28 20:10:54;;;;;;;;;;;20.70;91.00;;;;;;5054719;28;19912;-84
2023/03/28 20:13:21;;;;;;;;;;;20.70;91.00;;;;;;5070903;28;19915;-83
2023/03/28 20:15:48;;;;;;;;;;;20.70;90.80;;;;;;5072981;28;20393;-84
2023/03/28 20:18:25;;;;;;;;;;;20.70;91.00;;;;;;5074499;28;19917;-83
2023/03/28 20:20:52;;;;;;;;;;;20.70;90.80;;;;;;5073450;28;19954;-83
2023/03/28 20:23:21;;;;;;;;;;;20.70;90.70;;;;;;5072038;28;20366;-83